Time;durP1;ratioP1;P1;durP2;ratioP2;P2;SDS_P1;SDS_P2;PMS_P1;PMS_P2;Temp;Humidity;BMP_temperature;BMP_pressure;BME280_temperature;BME280_humidity;BME280_pressure;Samples;Min_cycle;Max_cycle;Signal;HPM_P1;HPM_P2
2023/12/02 00:03:10;;;;;;;5.22;2.40;;;;;;;18.23;100.00;101704.56;10606290;27;20047;-74
2023/12/02 00:08:33;;;;;;;6.53;1.73;;;;;;;18.35;100.00;101709.00;10591143;27;20055;-74
2023/12/02 00:13:57;;;;;;;7.22;2.00;;;;;;;18.33;100.00;101715.25;10579733;27;20701;-74
2023/12/02 00:19:19;;;;;;;5.15;1.85;;;;;;;18.32;100.00;101710.78;10605095;27;20039;-74
2023/12/02 00:24:42;;;;;;;5.82;1.88;;;;;;;18.34;100.00;101721.47;10572100;27;20078;-74
2023/12/02 00:30:07;;;;;;;6.78;2.20;;;;;;;18.38;100.00;101706.34;10588075;27;20540;-74
2023/12/02 00:35:30;;;;;;;3.45;1.70;;;;;;;18.38;100.00;101698.31;10599952;27;20040;-76
2023/12/02 00:40:52;;;;;;;5.00;1.80;;;;;;;18.38;100.00;101709.03;10600156;27;20085;-75
2023/12/02 00:46:16;;;;;;;7.80;2.20;;;;;;;18.42;100.00;101724.16;10604215;27;20043;-75
2023/12/02 00:51:38;;;;;;;13.98;2.50;;;;;;;18.31;100.00;101706.31;10596915;27;20043;-74
2023/12/02 00:57:01;;;;;;;5.38;1.90;;;;;;;18.49;100.00;101713.44;10604134;27;20043;-74
2023/12/02 01:02:25;;;;;;;5.95;2.20;;;;;;;18.52;100.00;101705.41;10592404;27;20356;-74
2023/12/02 01:07:47;;;;;;;5.82;2.05;;;;;;;18.61;100.00;101712.56;10602544;27;20134;-74
2023/12/02 01:13:10;;;;;;;7.22;1.92;;;;;;;18.65;100.00;101712.53;10603109;27;20130;-75
2023/12/02 01:18:34;;;;;;;5.22;1.77;;;;;;;18.69;100.00;101718.78;10601567;27;20058;-75
2023/12/02 01:23:56;;;;;;;7.82;2.55;;;;;;;18.62;100.00;101722.38;10602684;27;20047;-74
2023/12/02 01:29:18;;;;;;;9.57;2.70;;;;;;;18.48;100.00;101708.09;10587671;27;20441;-74
2023/12/02 01:34:42;;;;;;;2.70;1.77;;;;;;;18.54;100.00;101703.63;10572644;27;20465;-75
2023/12/02 01:40:06;;;;;;;4.57;2.08;;;;;;;18.66;100.00;101694.72;10583104;27;20076;-75
2023/12/02 01:45:30;;;;;;;6.72;1.75;;;;;;;18.65;100.00;101709.88;10600487;27;20096;-75
2023/12/02 01:50:54;;;;;;;7.60;1.45;;;;;;;18.62;100.00;101701.88;10584191;27;20244;-74
2023/12/02 01:56:17;;;;;;;4.32;1.67;;;;;;;18.42;100.00;101692.97;10598321;27;20051;-74
2023/12/02 02:01:39;;;;;;;2.80;1.60;;;;;;;18.34;100.00;101689.41;10584210;27;20476;-75
2023/12/02 02:07:03;;;;;;;8.05;1.92;;;;;;;18.35;100.00;101687.63;10599947;27;20043;-75
2023/12/02 02:12:25;;;;;;;4.97;1.63;;;;;;;18.52;100.00;101672.41;10578808;27;20055;-74
2023/12/02 02:17:50;;;;;;;3.85;2.00;;;;;;;18.54;100.00;101667.97;10582682;27;20045;-74
2023/12/02 02:23:14;;;;;;;5.45;1.50;;;;;;;18.48;100.00;101668.88;10587556;27;20047;-74
2023/12/02 02:28:37;;;;;;;5.45;1.60;;;;;;;18.40;100.00;101667.09;10562949;28;20111;-75
2023/12/02 02:33:59;;;;;;;4.75;1.52;;;;;;;18.42;100.00;101644.81;10598626;27;20047;-74
2023/12/02 02:39:24;;;;;;;2.60;1.20;;;;;;;18.47;100.00;101651.03;10574787;27;20043;-74
2023/12/02 02:44:46;;;;;;;5.57;1.77;;;;;;;18.49;100.00;101654.63;10587884;28;20394;-74
2023/12/02 02:50:09;;;;;;;3.67;1.63;;;;;;;18.52;100.00;101657.25;10577283;28;20434;-74
2023/12/02 02:55:33;;;;;;;4.30;1.40;;;;;;;18.50;100.00;101647.50;10581746;28;20080;-74
2023/12/02 03:00:55;;;;;;;6.43;1.58;;;;;;;18.53;100.00;101647.47;10594170;28;20088;-74
2023/12/02 03:06:18;;;;;;;2.40;1.40;;;;;;;18.47;100.00;101647.47;10600186;28;20400;-75
2023/12/02 03:11:42;;;;;;;4.38;1.67;;;;;;;18.45;100.00;101639.44;10581578;28;20503;-75
2023/12/02 03:17:05;;;;;;;3.70;1.45;;;;;;;18.55;100.00;101633.22;10566908;28;20056;-75
2023/12/02 03:22:27;;;;;;;7.97;1.77;;;;;;;18.48;100.00;101643.91;10594556;28;20055;-74
2023/12/02 03:27:51;;;;;;;3.40;1.58;;;;;;;18.41;100.00;101628.78;10575850;28;20074;-74
2023/12/02 03:33:13;;;;;;;4.28;1.40;;;;;;;18.38;100.00;101627.00;10596288;28;20039;-75
2023/12/02 03:38:36;;;;;;;2.75;1.38;;;;;;;18.31;100.00;101623.44;10568868;27;20071;-74
2023/12/02 03:44:00;;;;;;;5.38;1.60;;;;;;;18.30;100.00;101619.00;10605647;27;20043;-75
2023/12/02 03:49:22;;;;;;;3.65;1.20;;;;;;;18.31;100.00;101615.41;10590891;27;20043;-74
2023/12/02 03:54:45;;;;;;;2.95;1.40;;;;;;;18.16;100.00;101618.16;10596432;27;20043;-75
2023/12/02 04:00:13;;;;;;;5.15;1.67;;;;;;;18.33;100.00;101621.66;10605694;27;20047;-75
2023/12/02 04:05:35;;;;;;;3.22;1.60;;;;;;;18.34;100.00;101622.56;10600816;27;20071;-75
2023/12/02 04:10:57;;;;;;;2.65;1.35;;;;;;;18.15;100.00;101621.72;10605719;27;20051;-74
2023/12/02 04:16:22;;;;;;;4.40;1.63;;;;;;;18.06;100.00;101629.72;10586642;27;20043;-74
2023/12/02 04:21:46;;;;;;;1.92;1.02;;;;;;;18.20;100.00;101627.03;10605272;27;20092;-74
2023/12/02 04:27:08;;;;;;;4.68;1.80;;;;;;;18.10;100.00;101633.31;10598922;27;20047;-74
2023/12/02 04:32:32;;;;;;;3.70;2.13;;;;;;;17.97;100.00;101634.22;10591117;27;20050;-74
2023/12/02 04:37:54;;;;;;;2.85;1.52;;;;;;;17.93;100.00;101652.91;10570991;27;20184;-74
2023/12/02 04:43:17;;;;;;;3.45;1.55;;;;;;;17.85;100.00;101646.66;10587140;27;20120;-74
2023/12/02 04:48:41;;;;;;;12.75;9.95;;;;;;;17.77;100.00;101647.56;10575347;28;20443;-74
2023/12/02 04:54:03;;;;;;;12.43;9.05;;;;;;;17.86;100.00;101642.22;10575818;28;20048;-74
2023/12/02 04:59:26;;;;;;;8.38;5.45;;;;;;;17.88;100.00;101640.44;10561859;28;20485;-74
2023/12/02 05:04:50;;;;;;;7.63;3.45;;;;;;;17.93;100.00;101642.22;10561193;28;20953;-75
2023/12/02 05:10:12;;;;;;;6.15;1.65;;;;;;;18.06;100.00;101626.16;10574773;28;20046;-75
2023/12/02 05:15:35;;;;;;;2.42;1.25;;;;;;;18.40;100.00;101619.88;10537608;28;20056;-75
2023/12/02 05:20:59;;;;;;;4.95;1.63;;;;;;;18.59;100.00;101629.66;10538965;28;20116;-74
2023/12/02 05:26:21;;;;;;;2.92;1.27;;;;;;;18.69;100.00;101627.84;10575291;28;20039;-74
2023/12/02 05:31:43;;;;;;;7.32;1.58;;;;;;;18.73;100.00;101626.91;10574066;28;20035;-74
2023/12/02 05:37:07;;;;;;;6.88;1.98;;;;;;;18.89;100.00;101620.63;10552516;28;20465;-74
2023/12/02 05:42:30;;;;;;;6.78;1.55;;;;;;;19.14;100.00;101616.03;10584840;27;20039;-74
2023/12/02 05:47:52;;;;;;;3.67;2.03;;;;;;;19.25;100.00;101618.63;10573114;28;20124;-74
2023/12/02 05:53:16;;;;;;;4.55;1.80;;;;;;;19.34;100.00;101632.84;10549680;28;20052;-74
2023/12/02 05:58:39;;;;;;;4.70;1.75;;;;;;;19.47;100.00;101633.69;10572380;28;20051;-75
2023/12/02 06:04:03;;;;;;;5.20;1.95;;;;;;;19.73;100.00;101628.13;10555536;28;20445;-75
2023/12/02 06:09:27;;;;;;;5.90;1.60;;;;;;;20.23;100.00;101624.97;10559961;28;20039;-75
2023/12/02 06:14:50;;;;;;;6.53;1.75;;;;;;;20.61;100.00;101617.44;10547974;28;20044;-75
2023/12/02 06:20:13;;;;;;;4.22;1.60;;;;;;;20.79;100.00;101600.22;10570541;28;20071;-75
2023/12/02 06:25:37;;;;;;;6.47;1.80;;;;;;;21.09;100.00;101615.03;10556294;28;20097;-74
2023/12/02 06:31:00;;;;;;;3.28;1.10;;;;;;;21.75;100.00;101599.69;10571744;28;20124;-75
2023/12/02 06:36:22;;;;;;;8.70;2.83;;;;;;;22.00;100.00;101619.00;10553648;28;20500;-75
2023/12/02 06:41:46;;;;;;;4.00;1.60;;;;;;;21.80;100.00;101610.34;10571515;28;20128;-75
2023/12/02 06:47:08;;;;;;;4.30;1.75;;;;;;;22.00;100.00;101618.09;10590278;28;20099;-75
2023/12/02 06:52:31;;;;;;;5.78;1.40;;;;;;;22.04;100.00;101612.66;10580581;28;20494;-75
2023/12/02 06:57:55;;;;;;;3.92;1.40;;;;;;;22.43;100.00;101591.31;10598139;28;20047;-74
2023/12/02 07:03:18;;;;;;;13.35;1.70;;;;;;;22.29;100.00;101604.13;10592271;28;20580;-74
2023/12/02 07:08:40;;;;;;;9.32;1.92;;;;;;;22.59;100.00;101604.41;10599860;28;20090;-73
2023/12/02 07:14:05;;;;;;;5.32;1.58;;;;;;;23.20;100.00;101592.34;10589199;27;20049;-74
2023/12/02 07:19:27;;;;;;;7.25;1.60;;;;;;;23.56;100.00;101581.66;10563103;27;20055;-74
2023/12/02 07:24:50;;;;;;;8.60;1.90;;;;;;;24.61;100.00;101604.00;10608015;27;20519;-75
2023/12/02 07:30:14;;;;;;;4.80;1.70;;;;;;;24.62;100.00;101612.03;10586518;27;20474;-76
2023/12/02 07:35:36;;;;;;;8.65;1.75;;;;;;;24.63;100.00;101612.94;10591472;27;20046;-76
2023/12/02 07:40:59;;;;;;;5.85;1.30;;;;;;;24.82;98.51;101615.97;10605968;27;20496;-76
2023/12/02 07:46:23;;;;;;;2.67;1.33;;;;;;;24.68;100.00;101610.97;10597221;27;20477;-75
2023/12/02 07:51:46;;;;;;;6.38;1.60;;;;;;;26.11;84.09;101611.84;10587502;27;20055;-75
2023/12/02 07:57:08;;;;;;;6.38;1.90;;;;;;;26.06;80.67;101587.63;10595237;27;20039;-75
2023/12/02 08:02:32;;;;;;;7.43;2.08;;;;;;;26.44;79.85;101605.25;10603956;27;20051;-74
2023/12/02 08:07:54;;;;;;;9.32;1.63;;;;;;;26.32;72.33;101586.72;10595399;27;20052;-75
2023/12/02 08:13:17;;;;;;;6.28;2.03;;;;;;;26.65;72.42;101594.56;10576101;27;20035;-75
2023/12/02 08:18:41;;;;;;;8.73;2.22;;;;;;;27.24;67.10;101584.97;10561762;27;20146;-75
2023/12/02 08:24:04;;;;;;;5.75;1.83;;;;;;;27.22;62.88;101580.59;10569060;27;20039;-75
2023/12/02 08:29:27;;;;;;;6.65;2.20;;;;;;;26.45;69.62;101579.06;10548955;28;20040;-75
2023/12/02 08:34:51;;;;;;;6.03;1.80;;;;;;;26.54;67.18;101576.88;10566688;27;20047;-76
2023/12/02 08:40:13;;;;;;;6.13;1.88;;;;;;;26.81;64.29;101574.03;10573611;27;20059;-76
2023/12/02 08:45:36;;;;;;;10.90;2.00;;;;;;;26.85;63.22;101562.13;10578456;27;20043;-76
2023/12/02 08:51:00;;;;;;;8.57;2.10;;;;;;;27.34;62.06;101575.53;10569904;27;20496;-76
2023/12/02 08:56:23;;;;;;;8.07;1.90;;;;;;;27.54;58.99;101571.16;10567148;27;20462;-76
2023/12/02 09:01:45;;;;;;;7.10;2.15;;;;;;;27.71;55.89;101558.63;10586136;27;20444;-76
2023/12/02 09:07:09;;;;;;;14.73;2.20;;;;;;;26.98;63.64;101558.91;10583617;27;20092;-76
2023/12/02 09:12:31;;;;;;;10.15;2.35;;;;;;;27.42;60.35;101566.22;10574424;27;20051;-77
2023/12/02 09:18:08;;;;;;;7.32;2.22;;;;;;;27.10;61.15;101565.69;10576306;27;20040;-76
2023/12/02 09:23:33;;;;;;;11.17;2.00;;;;;;;26.86;62.31;101543.09;10587037;27;20044;-77
2023/12/02 09:28:56;;;;;;;12.70;2.45;;;;;;;27.19;58.89;101526.47;10561079;28;20457;-77
2023/12/02 09:34:56;;;;;;;7.70;2.08;;;;;;;26.64;63.48;101520.53;10546903;28;20096;-76
2023/12/02 09:40:40;;;;;;;9.13;2.42;;;;;;;26.06;70.37;101513.66;10584767;27;20445;-76
2023/12/02 09:46:16;;;;;;;10.38;2.20;;;;;;;26.44;68.87;101515.88;10592434;27;20142;-74
2023/12/02 09:51:56;;;;;;;12.95;2.95;;;;;;;25.22;83.41;101510.25;10586448;27;20143;-75
2023/12/02 09:57:32;;;;;;;11.60;2.22;;;;;;;26.25;75.38;101500.38;10575722;27;20145;-75
2023/12/02 10:03:14;;;;;;;12.85;4.38;;;;;;;25.97;77.80;101492.34;10582545;27;20051;-75
2023/12/02 10:08:52;;;;;;;7.35;2.20;;;;;;;26.53;69.72;101484.81;10584530;27;20111;-77
2023/12/02 10:14:20;;;;;;;7.97;2.40;;;;;;;25.45;81.55;101471.63;10576631;27;20089;-75
2023/12/02 10:19:52;;;;;;;12.90;2.92;;;;;;;24.77;90.64;101466.66;10586436;27;20051;-74
2023/12/02 10:25:27;;;;;;;8.07;2.10;;;;;;;24.63;95.29;101467.97;10600702;27;20040;-75
2023/12/02 10:30:56;;;;;;;11.95;2.75;;;;;;;25.31;92.49;101462.19;10582430;27;20044;-74
2023/12/02 10:36:22;;;;;;;15.95;3.25;;;;;;;25.33;90.87;101463.03;10559576;28;20051;-75
2023/12/02 10:41:50;;;;;;;9.02;2.17;;;;;;;25.35;92.28;101460.25;10598000;27;20077;-74
2023/12/02 10:47:16;;;;;;;11.38;2.47;;;;;;;25.30;89.43;101459.53;10577479;27;20093;-74
2023/12/02 10:52:43;;;;;;;11.13;2.42;;;;;;;24.35;96.88;101442.75;10590787;27;20504;-74
2023/12/02 10:58:06;;;;;;;8.97;2.33;;;;;;;23.76;100.00;101450.75;10573172;27;20101;-74
2023/12/02 11:03:35;;;;;;;9.68;2.33;;;;;;;24.03;100.00;101467.06;10614510;27;20050;-74
2023/12/02 11:09:10;;;;;;;11.65;3.05;;;;;;;23.89;100.00;101436.94;10597616;27;20117;-74
2023/12/02 11:14:38;;;;;;;14.73;2.83;;;;;;;23.69;100.00;101442.88;10587258;27;20056;-75
2023/12/02 11:20:08;;;;;;;14.98;2.70;;;;;;;23.27;100.00;101428.72;10606018;27;20040;-74
2023/12/02 11:25:45;;;;;;;9.63;2.22;;;;;;;23.28;100.00;101417.00;10586668;27;20126;-74
2023/12/02 11:31:25;;;;;;;14.13;2.40;;;;;;;23.47;100.00;101421.00;10609147;27;20040;-74
2023/12/02 11:36:59;;;;;;;16.02;2.70;;;;;;;24.16;100.00;101411.81;10604986;27;20920;-73
2023/12/02 11:42:25;;;;;;;10.25;2.38;;;;;;;24.42;100.00;101405.66;10600542;27;20071;-75
2023/12/02 11:48:12;;;;;;;9.48;2.97;;;;;;;24.54;98.82;101378.28;10582152;27;20057;-74
2023/12/02 11:54:01;;;;;;;10.43;1.90;;;;;;;24.47;100.00;101379.41;10596854;27;20130;-74
2023/12/02 11:59:32;;;;;;;10.60;2.95;;;;;;;24.42;97.06;101375.97;10594078;27;20055;-74
2023/12/02 12:05:12;;;;;;;8.52;2.13;;;;;;;24.02;100.00;101370.91;10563252;28;20071;-74
2023/12/02 12:10:38;;;;;;;11.57;2.35;;;;;;;24.05;100.00;101368.97;10595843;27;20077;-75
2023/12/02 12:16:00;;;;;;;12.95;2.58;;;;;;;23.56;100.00;101366.84;10592433;27;20042;-75
2023/12/02 12:21:23;;;;;;;11.48;2.47;;;;;;;23.36;100.00;101372.75;10584038;27;20104;-75
2023/12/02 12:26:47;;;;;;;8.82;2.58;;;;;;;23.34;100.00;101376.41;10576266;27;20051;-74
2023/12/02 12:32:11;;;;;;;18.02;3.35;;;;;;;23.02;100.00;101388.06;10590282;27;20039;-75
2023/12/02 12:37:36;;;;;;;10.57;2.60;;;;;;;22.86;100.00;101386.66;10604975;27;20047;-74
2023/12/02 12:43:01;;;;;;;10.57;2.00;;;;;;;22.74;100.00;101374.38;10576613;28;20132;-74
2023/12/02 12:48:29;;;;;;;10.77;2.88;;;;;;;22.61;100.00;101375.56;10561412;28;20056;-74
2023/12/02 12:54:00;;;;;;;11.05;2.63;;;;;;;22.56;100.00;101372.13;10580827;27;20047;-74
2023/12/02 12:59:26;;;;;;;11.13;3.08;;;;;;;22.54;100.00;101369.47;10561625;28;20051;-74
2023/12/02 13:04:58;;;;;;;10.80;2.43;;;;;;;22.37;100.00;101378.84;10601638;27;20051;-75
2023/12/02 13:10:21;;;;;;;13.63;2.80;;;;;;;22.23;100.00;101369.28;10602637;27;20047;-75
2023/12/02 13:15:47;;;;;;;9.15;2.13;;;;;;;22.10;100.00;101377.66;10588734;27;20047;-74
2023/12/02 13:21:12;;;;;;;14.57;2.78;;;;;;;22.00;100.00;101384.16;10588690;27;20054;-74
2023/12/02 13:26:36;;;;;;;17.00;3.45;;;;;;;21.82;100.00;101354.03;10603015;27;20050;-74
2023/12/02 13:32:00;;;;;;;12.57;3.42;;;;;;;21.77;100.00;101388.19;10587681;27;20501;-75
2023/12/02 13:37:34;;;;;;;15.60;3.45;;;;;;;21.61;100.00;101375.97;10584766;27;20073;-74
2023/12/02 13:43:00;;;;;;;14.68;3.15;;;;;;;21.39;100.00;101380.91;10600892;27;20099;-74
2023/12/02 13:48:38;;;;;;;18.33;3.05;;;;;;;21.41;100.00;101392.47;10591623;27;20502;-74
2023/12/02 13:54:08;;;;;;;11.65;2.47;;;;;;;21.31;100.00;101407.00;10576709;27;20036;-75
2023/12/02 13:59:40;;;;;;;18.73;2.78;;;;;;;21.18;100.00;101410.81;10583085;27;20047;-75
2023/12/02 14:05:07;;;;;;;12.10;3.15;;;;;;;21.09;100.00;101419.00;10604247;27;20055;-75
2023/12/02 14:10:31;;;;;;;13.18;2.33;;;;;;;21.09;100.00;101397.50;10590536;27;20058;-75
2023/12/02 14:16:14;;;;;;;9.60;2.50;;;;;;;21.01;100.00;101423.59;10602120;27;20054;-74
2023/12/02 14:21:58;;;;;;;20.27;3.33;;;;;;;20.93;100.00;101428.22;10600919;27;20136;-75
2023/12/02 14:27:37;;;;;;;11.55;2.42;;;;;;;20.88;100.00;101432.75;10572610;27;20039;-75
2023/12/02 14:33:17;;;;;;;14.02;2.67;;;;;;;20.80;100.00;101421.28;10568129;27;20039;-75
2023/12/02 14:39:09;;;;;;;11.85;3.40;;;;;;;20.63;100.00;101424.22;10600924;27;20102;-75
2023/12/02 14:44:32;;;;;;;15.48;3.85;;;;;;;20.49;100.00;101435.16;10560268;28;20471;-74
2023/12/02 14:49:58;;;;;;;16.60;3.53;;;;;;;20.39;100.00;101421.91;10564530;28;20092;-74
2023/12/02 14:55:29;;;;;;;15.57;3.08;;;;;;;20.33;100.00;101420.19;10576040;28;20039;-74
2023/12/02 15:00:53;;;;;;;19.65;4.18;;;;;;;20.20;100.00;101430.16;10567413;28;20138;-74
2023/12/02 15:06:16;;;;;;;15.82;3.58;;;;;;;20.14;100.00;101422.22;10542322;28;20141;-75
2023/12/02 15:11:41;;;;;;;9.88;3.75;;;;;;;20.17;100.00;101426.63;10576510;27;20087;-74
2023/12/02 15:17:09;;;;;;;19.52;3.72;;;;;;;20.05;100.00;101427.69;10555328;28;20035;-74
2023/12/02 15:22:31;;;;;;;21.92;4.63;;;;;;;20.10;100.00;101423.13;10587887;28;20055;-74
2023/12/02 15:27:55;;;;;;;16.30;3.53;;;;;;;20.08;100.00;101416.03;10570623;28;20039;-75
2023/12/02 15:33:18;;;;;;;17.55;3.83;;;;;;;20.05;100.00;101400.88;10579671;28;20040;-74
2023/12/02 15:38:41;;;;;;;18.90;3.70;;;;;;;20.03;100.00;101421.44;10572261;27;20054;-75
2023/12/02 15:44:05;;;;;;;17.77;2.78;;;;;;;20.00;100.00;101428.66;10578483;27;20039;-75
2023/12/02 15:49:30;;;;;;;17.52;4.10;;;;;;;20.03;100.00;101429.47;10580748;27;20050;-74
2023/12/02 15:54:53;;;;;;;16.92;3.53;;;;;;;20.10;100.00;101446.38;10559580;27;20116;-74
2023/12/02 16:00:17;;;;;;;13.80;4.78;;;;;;;20.11;100.00;101442.78;10574931;27;20051;-74
2023/12/02 16:05:40;;;;;;;15.23;2.85;;;;;;;20.14;100.00;101427.56;10568640;27;20401;-74
2023/12/02 16:11:03;;;;;;;16.10;3.08;;;;;;;20.10;100.00;101433.88;10561083;27;20048;-74
2023/12/02 16:16:28;;;;;;;16.90;3.83;;;;;;;20.16;100.00;101430.22;10556725;27;20043;-75
2023/12/02 16:21:50;;;;;;;23.42;3.55;;;;;;;20.15;100.00;101436.50;10547304;28;20104;-74
2023/12/02 16:27:13;;;;;;;14.77;3.08;;;;;;;20.07;100.00;101443.75;10587789;27;20523;-74
2023/12/02 16:32:39;;;;;;;21.85;3.97;;;;;;;20.18;100.00;101440.03;10577933;27;20039;-74
2023/12/02 16:38:02;;;;;;;19.67;3.88;;;;;;;20.02;100.00;101459.88;10561947;28;20366;-74
2023/12/02 16:43:24;;;;;;;21.38;3.08;;;;;;;20.01;100.00;101458.13;10562940;27;20745;-75
2023/12/02 16:48:48;;;;;;;20.23;4.07;;;;;;;20.03;100.00;101472.38;10604602;27;20079;-74
2023/12/02 16:54:11;;;;;;;25.90;4.28;;;;;;;20.06;100.00;101476.81;10583545;27;20452;-74
2023/12/02 16:59:49;;;;;;;21.38;3.35;;;;;;;20.11;100.00;101473.19;10548090;28;20036;-75
2023/12/02 17:05:55;;;;;;;17.00;4.13;;;;;;;20.12;100.00;101469.59;10583383;27;20071;-75
2023/12/02 17:11:19;;;;;;;12.52;2.78;;;;;;;20.05;100.00;101450.91;10576114;28;20553;-73
2023/12/02 17:16:55;;;;;;;18.52;3.47;;;;;;;20.12;100.00;101463.34;10561897;28;20100;-73
2023/12/02 17:22:19;;;;;;;18.83;3.35;;;;;;;20.07;100.00;101462.53;10547091;28;20061;-73
2023/12/02 17:27:42;;;;;;;16.77;3.22;;;;;;;20.04;100.00;101463.44;10561349;28;20051;-73
2023/12/02 17:33:04;;;;;;;24.40;4.55;;;;;;;20.05;100.00;101475.03;10561175;28;20082;-73
2023/12/02 17:38:28;;;;;;;14.65;3.05;;;;;;;19.90;100.00;101452.88;10560901;28;20043;-73
2023/12/02 17:43:51;;;;;;;19.15;4.50;;;;;;;19.88;100.00;101465.41;10560374;28;20101;-76
2023/12/02 17:49:13;;;;;;;20.38;4.30;;;;;;;19.81;100.00;101466.38;10477038;28;20427;-73
2023/12/02 17:54:37;;;;;;;12.52;3.20;;;;;;;19.86;100.00;101459.19;10490445;28;20076;-73
2023/12/02 18:00:00;;;;;;;20.48;3.90;;;;;;;19.92;100.00;101465.38;10489204;28;20056;-73
2023/12/02 18:05:23;;;;;;;13.68;2.97;;;;;;;20.05;100.00;101461.63;10502122;28;20044;-74
2023/12/02 18:10:47;;;;;;;21.70;4.05;;;;;;;19.98;100.00;101457.25;10491664;28;20059;-73
2023/12/02 18:16:10;;;;;;;20.85;2.83;;;;;;;19.95;100.00;101470.72;10503040;28;20229;-73
2023/12/02 18:21:33;;;;;;;28.95;4.82;;;;;;;19.87;100.00;101476.16;10528350;28;20276;-73
2023/12/02 18:26:57;;;;;;;20.58;3.45;;;;;;;19.80;100.00;101482.47;10475826;28;20037;-73
2023/12/02 18:32:20;;;;;;;17.27;3.63;;;;;;;19.79;100.00;101495.00;10489844;28;20106;-73
2023/12/02 18:37:42;;;;;;;20.83;3.47;;;;;;;19.81;100.00;101481.59;10488843;28;20133;-74
2023/12/02 18:43:06;;;;;;;17.33;3.00;;;;;;;19.85;100.00;101476.16;10474588;28;20052;-73
2023/12/02 18:48:29;;;;;;;24.40;4.35;;;;;;;19.71;100.00;101456.66;10525224;28;20091;-73
2023/12/02 18:53:51;;;;;;;20.88;3.70;;;;;;;19.78;100.00;101485.16;10530889;28;20059;-73
2023/12/02 18:59:15;;;;;;;20.52;2.45;;;;;;;19.73;100.00;101484.34;10516498;28;20525;-73
2023/12/02 19:04:37;;;;;;;23.60;3.67;;;;;;;19.72;100.00;101466.47;10529603;28;20487;-73
2023/12/02 19:10:02;;;;;;;17.58;3.75;;;;;;;19.65;100.00;101478.16;10535066;28;20068;-73
2023/12/02 19:15:26;;;;;;;18.08;3.45;;;;;;;19.56;100.00;101447.91;10525007;28;20389;-74
2023/12/02 19:20:48;;;;;;;19.00;3.83;;;;;;;19.60;100.00;101465.72;10538230;28;20051;-72
2023/12/02 19:26:11;;;;;;;28.00;4.25;;;;;;;19.61;100.00;101456.78;10538083;28;20143;-73
2023/12/02 19:31:35;;;;;;;14.40;2.60;;;;;;;19.52;100.00;101460.44;10538194;28;20075;-73
2023/12/02 19:36:57;;;;;;;20.13;3.53;;;;;;;19.57;100.00;101446.97;10538596;28;20477;-73
2023/12/02 19:42:21;;;;;;;16.85;3.00;;;;;;;19.58;100.00;101444.31;10537264;28;20568;-73
2023/12/02 19:47:45;;;;;;;17.70;3.25;;;;;;;19.59;100.00;101416.63;10537362;28;20121;-73
2023/12/02 19:53:08;;;;;;;13.20;2.75;;;;;;;19.63;100.00;101434.41;10536698;28;20068;-73
2023/12/02 19:58:30;;;;;;;20.40;4.03;;;;;;;19.64;100.00;101428.16;10536306;28;20121;-72
2023/12/02 20:03:54;;;;;;;14.48;3.47;;;;;;;19.53;100.00;101416.69;10532927;28;20048;-73
2023/12/02 20:09:18;;;;;;;16.98;3.53;;;;;;;19.56;100.00;101424.66;10520674;28;20520;-73
2023/12/02 20:14:40;;;;;;;17.80;3.72;;;;;;;19.59;100.00;101418.41;10534073;28;20408;-72
2023/12/02 20:20:05;;;;;;;15.23;3.38;;;;;;;19.54;100.00;101422.94;10531925;28;20133;-73
2023/12/02 20:25:27;;;;;;;17.52;3.47;;;;;;;19.51;100.00;101429.19;10521909;28;20105;-74
2023/12/02 20:30:50;;;;;;;12.52;2.90;;;;;;;19.46;100.00;101434.59;10534756;28;20625;-73
2023/12/02 20:36:15;;;;;;;18.83;3.30;;;;;;;19.51;100.00;101429.19;10536914;28;20039;-73
2023/12/02 20:41:38;;;;;;;17.50;3.85;;;;;;;19.45;100.00;101434.59;10505675;28;20056;-73
2023/12/02 20:47:00;;;;;;;16.85;2.75;;;;;;;19.31;100.00;101433.81;10541869;28;20405;-74
2023/12/02 20:52:24;;;;;;;20.25;2.63;;;;;;;19.16;100.00;101434.88;10576134;27;20044;-73
2023/12/02 20:57:47;;;;;;;26.90;3.10;;;;;;;19.19;100.00;101425.91;10596323;27;20047;-74
2023/12/02 21:03:09;;;;;;;17.35;2.95;;;;;;;19.31;100.00;101420.44;10601479;27;20075;-74
2023/12/02 21:08:33;;;;;;;18.58;2.80;;;;;;;19.34;100.00;101397.22;10594177;27;20059;-74
2023/12/02 21:13:56;;;;;;;18.30;3.42;;;;;;;19.55;100.00;101401.50;10595352;27;20088;-75
2023/12/02 21:19:18;;;;;;;16.30;3.40;;;;;;;19.59;100.00;101383.56;10589659;27;20059;-76
2023/12/02 21:24:46;;;;;;;22.88;3.97;;;;;;;19.67;100.00;101393.31;10561454;28;20043;-75
2023/12/02 21:30:31;;;;;;;17.15;3.47;;;;;;;19.54;100.00;101388.09;10582005;27;20040;-75
2023/12/02 21:35:56;;;;;;;15.73;3.25;;;;;;;19.57;100.00;101388.94;10560062;28;20151;-75
2023/12/02 21:41:20;;;;;;;14.52;2.58;;;;;;;19.47;100.00;101387.28;10560732;28;20040;-75
2023/12/02 21:46:42;;;;;;;21.63;3.85;;;;;;;19.35;100.00;101395.41;10561613;27;20047;-75
2023/12/02 21:52:05;;;;;;;21.63;3.83;;;;;;;19.32;100.00;101404.34;10602011;27;20398;-75
2023/12/02 21:57:31;;;;;;;21.85;4.13;;;;;;;19.26;100.00;101385.69;10599331;27;20378;-75
2023/12/02 22:02:53;;;;;;;20.23;3.47;;;;;;;19.27;100.00;101381.22;10567273;27;20055;-75
2023/12/02 22:08:16;;;;;;;20.23;3.70;;;;;;;19.20;100.00;101374.16;10583750;27;20070;-75
2023/12/02 22:13:41;;;;;;;19.08;3.05;;;;;;;19.16;100.00;101369.75;10572927;28;20126;-75
2023/12/02 22:19:03;;;;;;;20.48;5.00;;;;;;;19.21;100.00;101376.81;10574673;27;20092;-74
2023/12/02 22:24:26;;;;;;;26.52;3.67;;;;;;;19.30;100.00;101376.72;10571594;27;20043;-75
2023/12/02 22:29:50;;;;;;;28.55;4.57;;;;;;;19.39;100.00;101381.09;10546837;27;20382;-75
2023/12/02 22:35:13;;;;;;;22.23;4.72;;;;;;;19.44;100.00;101342.63;10582849;27;20071;-75
2023/12/02 22:40:44;;;;;;;27.00;4.07;;;;;;;19.48;100.00;101347.09;10588285;27;20099;-76
2023/12/02 22:46:10;;;;;;;24.40;3.72;;;;;;;19.48;100.00;101344.44;10565399;28;20048;-75
2023/12/02 22:51:37;;;;;;;19.05;3.53;;;;;;;19.55;100.00;101333.63;10591775;28;20046;-75
2023/12/02 22:57:00;;;;;;;26.48;4.97;;;;;;;19.56;100.00;101330.91;10569981;28;20047;-76
2023/12/02 23:02:25;;;;;;;24.55;3.42;;;;;;;19.53;100.00;101325.63;10565091;28;20147;-76
2023/12/02 23:07:56;;;;;;;21.98;3.35;;;;;;;19.44;100.00;101329.25;10581418;28;20136;-75
2023/12/02 23:13:50;;;;;;;21.20;4.45;;;;;;;19.44;100.00;101333.72;10559167;28;20425;-75
2023/12/02 23:19:28;;;;;;;22.25;3.50;;;;;;;19.33;100.00;101328.50;10581996;28;20055;-75
2023/12/02 23:24:50;;;;;;;16.02;3.15;;;;;;;19.43;100.00;101330.16;10594746;28;20134;-76
2023/12/02 23:30:13;;;;;;;26.50;3.80;;;;;;;19.45;100.00;101325.66;10564111;28;20074;-76
2023/12/02 23:35:37;;;;;;;13.75;3.20;;;;;;;19.48;100.00;101319.44;10573344;28;20180;-75
2023/12/02 23:41:00;;;;;;;16.77;3.58;;;;;;;19.51;100.00;101316.69;10592043;28;20519;-75
2023/12/02 23:46:25;;;;;;;16.70;3.55;;;;;;;19.48;100.00;101320.31;10570892;28;20096;-76
2023/12/02 23:51:49;;;;;;;19.27;3.53;;;;;;;19.52;100.00;101306.88;10559084;28;20374;-75
2023/12/02 23:57:13;;;;;;;19.58;3.15;;;;;;;19.45;100.00;101325.66;10558059;27;20480;-76
